Time;durP1;ratioP1;P1;durP2;ratioP2;P2;SDS_P1;SDS_P2;PMS_P1;PMS_P2;Temp;Humidity;BMP_temperature;BMP_pressure;BME280_temperature;BME280_humidity;BME280_pressure;Samples;Min_cycle;Max_cycle;Signal;HPM_P1;HPM_P2
2022/02/08 00:00:18;;;;;;;4.40;2.20;;;1.00;99.90;;;;;;5055533;28;20236;-81
2022/02/08 00:02:50;;;;;;;7.10;3.40;;;1.10;99.90;;;;;;5057126;28;20217;-81
2022/02/08 00:05:18;;;;;;;7.63;4.00;;;1.20;99.90;;;;;;5057755;28;20587;-82
2022/02/08 00:07:48;;;;;;;5.32;3.40;;;1.30;99.90;;;;;;5057191;28;20248;-81
2022/02/08 00:10:17;;;;;;;4.38;3.97;;;1.30;99.90;;;;;;5056902;28;20285;-81
2022/02/08 00:12:43;;;;;;;10.20;3.90;;;1.20;99.90;;;;;;5057292;28;20226;-81
2022/02/08 00:15:11;;;;;;;6.53;4.00;;;1.30;99.90;;;;;;5057356;28;20233;-81
2022/02/08 00:17:38;;;;;;;10.93;3.97;;;1.20;99.90;;;;;;5056809;28;20203;-81
2022/02/08 00:20:07;;;;;;;2.85;2.65;;;1.20;99.90;;;;;;5056573;28;20208;-81
2022/02/08 00:22:34;;;;;;;3.63;2.03;;;1.30;99.90;;;;;;5075453;22;20325;-82
2022/02/08 00:25:01;;;;;;;5.32;3.50;;;1.20;99.90;;;;;;5070509;28;20214;-82
2022/02/08 00:27:29;;;;;;;3.92;3.22;;;1.30;99.90;;;;;;5052489;28;20213;-81
2022/02/08 00:29:56;;;;;;;9.00;3.20;;;1.30;99.90;;;;;;5062413;28;20217;-82
2022/02/08 00:32:22;;;;;;;4.15;3.35;;;1.40;99.90;;;;;;5051902;28;20218;-82
2022/02/08 00:34:49;;;;;;;4.10;2.67;;;1.40;99.90;;;;;;5051229;28;20206;-82
2022/02/08 00:37:16;;;;;;;2.63;2.35;;;1.40;99.90;;;;;;5048587;28;20203;-82
2022/02/08 00:39:44;;;;;;;3.80;2.53;;;1.40;99.90;;;;;;5052568;28;20199;-82
2022/02/08 00:42:12;;;;;;;4.75;2.70;;;1.50;99.90;;;;;;5054294;28;20243;-82
2022/02/08 00:44:45;;;;;;;3.13;2.05;;;1.40;99.90;;;;;;5053070;28;20203;-79
2022/02/08 00:47:20;;;;;;;2.88;1.95;;;1.50;99.90;;;;;;5034659;28;20237;-80
2022/02/08 00:49:47;;;;;;;3.05;2.33;;;1.50;99.90;;;;;;5044888;28;20373;-80
2022/02/08 00:52:15;;;;;;;4.43;2.40;;;1.60;99.90;;;;;;5041943;28;20218;-80
2022/02/08 00:54:43;;;;;;;6.18;3.13;;;1.60;99.90;;;;;;5045035;28;20199;-79
2022/02/08 00:57:10;;;;;;;5.80;2.92;;;1.70;99.90;;;;;;5045473;28;20211;-79
2022/02/08 00:59:37;;;;;;;6.57;2.33;;;1.80;99.90;;;;;;5037492;28;20204;-79
2022/02/08 01:02:06;;;;;;;4.30;2.15;;;1.80;99.90;;;;;;5037290;28;20218;-79
2022/02/08 01:04:34;;;;;;;5.03;2.28;;;1.70;99.90;;;;;;5040162;28;20199;-81
2022/02/08 01:07:01;;;;;;;3.47;2.53;;;1.70;99.90;;;;;;5046513;28;20213;-81
2022/02/08 01:09:39;;;;;;;2.55;1.90;;;1.80;99.90;;;;;;5047006;28;20735;-81
2022/02/08 01:12:07;;;;;;;4.00;1.85;;;1.80;99.90;;;;;;5052039;28;20688;-81
2022/02/08 01:14:38;;;;;;;3.28;1.60;;;1.90;99.90;;;;;;5037654;28;20210;-81
2022/02/08 01:17:07;;;;;;;5.47;1.95;;;1.90;99.90;;;;;;5045977;28;20281;-81
2022/02/08 01:19:36;;;;;;;4.10;1.95;;;1.90;99.90;;;;;;5055214;28;20253;-81
2022/02/08 01:22:03;;;;;;;4.00;2.22;;;1.80;99.90;;;;;;5048249;28;20232;-81
2022/02/08 01:24:29;;;;;;;5.75;2.22;;;1.80;99.90;;;;;;5038621;28;20683;-81
2022/02/08 01:27:02;;;;;;;2.53;2.17;;;1.90;99.90;;;;;;5044568;28;20200;-81
2022/02/08 01:29:38;;;;;;;1.95;1.75;;;1.90;99.90;;;;;;5057016;28;20223;-81
2022/02/08 01:32:21;;;;;;;7.13;2.47;;;1.80;99.90;;;;;;5057614;28;20225;-81
2022/02/08 01:35:01;;;;;;;2.65;2.15;;;1.90;99.90;;;;;;5052356;28;20199;-81
2022/02/08 01:37:42;;;;;;;2.20;2.10;;;2.00;99.90;;;;;;5040764;28;20574;-81
2022/02/08 01:40:19;;;;;;;3.83;2.15;;;2.00;99.90;;;;;;5053110;28;20238;-81
2022/02/08 01:43:02;;;;;;;6.80;2.33;;;1.90;99.90;;;;;;5060167;28;20222;-81
2022/02/08 01:45:44;;;;;;;2.22;2.03;;;1.90;99.90;;;;;;5027621;28;20207;-81
2022/02/08 01:48:15;;;;;;;6.00;3.30;;;1.90;99.90;;;;;;5040977;28;20268;-81
2022/02/08 01:50:43;;;;;;;2.10;1.95;;;2.00;99.90;;;;;;5041612;28;20317;-81
2022/02/08 01:53:10;;;;;;;2.55;2.08;;;1.90;99.90;;;;;;5059106;28;20233;-81
2022/02/08 01:55:39;;;;;;;2.00;1.83;;;1.80;99.90;;;;;;5060840;28;20203;-81
2022/02/08 01:58:06;;;;;;;3.05;1.65;;;1.80;99.90;;;;;;5043320;28;20199;-81
2022/02/08 02:00:33;;;;;;;3.35;1.98;;;1.90;99.90;;;;;;5050997;28;20192;-81
2022/02/08 02:03:01;;;;;;;5.18;2.20;;;2.00;99.90;;;;;;5060201;28;20228;-80
2022/02/08 02:05:30;;;;;;;4.30;2.60;;;1.90;99.90;;;;;;5060082;28;20203;-81
2022/02/08 02:07:58;;;;;;;1.90;1.80;;;2.00;99.90;;;;;;5050602;28;20254;-81
2022/02/08 02:10:25;;;;;;;1.88;1.77;;;2.10;99.90;;;;;;5040328;28;20221;-81
2022/02/08 02:12:54;;;;;;;3.00;1.52;;;2.20;99.90;;;;;;5056764;28;20309;-81
2022/02/08 02:15:21;;;;;;;2.10;1.88;;;2.30;99.90;;;;;;5060662;28;20206;-81
2022/02/08 02:17:48;;;;;;;2.72;1.85;;;2.40;99.90;;;;;;5044142;28;20203;-81
2022/02/08 02:20:15;;;;;;;4.18;1.80;;;2.30;99.90;;;;;;5041189;28;20198;-81
2022/02/08 02:22:44;;;;;;;4.15;3.92;;;2.30;99.90;;;;;;5054885;28;20232;-81
2022/02/08 02:25:21;;;;;;;2.75;2.50;;;2.20;99.90;;;;;;5048394;28;20765;-81
2022/02/08 02:27:49;;;;;;;2.50;1.65;;;2.20;99.90;;;;;;5040186;28;20208;-81
2022/02/08 02:30:16;;;;;;;3.85;1.60;;;2.20;99.90;;;;;;5041723;28;20221;-81
2022/02/08 02:32:43;;;;;;;3.13;1.25;;;2.30;99.90;;;;;;5041759;28;20219;-81
2022/02/08 02:35:10;;;;;;;3.83;2.10;;;2.30;99.90;;;;;;5040072;28;20205;-81
2022/02/08 02:37:37;;;;;;;4.05;2.13;;;2.30;99.90;;;;;;5053784;28;20199;-81
2022/02/08 02:40:05;;;;;;;2.10;1.90;;;2.30;99.90;;;;;;5050800;28;20202;-81
2022/02/08 02:42:34;;;;;;;5.68;2.55;;;2.30;99.90;;;;;;5058779;28;20226;-81
2022/02/08 02:45:01;;;;;;;4.63;1.48;;;2.20;99.90;;;;;;5059221;28;20211;-81
2022/02/08 02:47:28;;;;;;;2.30;1.90;;;2.30;99.90;;;;;;5047582;28;20262;-81
2022/02/08 02:49:55;;;;;;;6.32;2.75;;;2.40;99.90;;;;;;5040565;28;20235;-81
2022/02/08 02:52:22;;;;;;;3.42;1.45;;;2.20;99.90;;;;;;5042394;28;20231;-81
2022/02/08 02:54:49;;;;;;;5.70;2.15;;;2.30;99.90;;;;;;5058478;28;20205;-82
2022/02/08 02:57:17;;;;;;;1.75;1.65;;;2.30;99.90;;;;;;5059588;28;20282;-81
2022/02/08 02:59:48;;;;;;;1.27;1.17;;;2.10;99.90;;;;;;5058543;28;20209;-81
2022/02/08 03:02:36;;;;;;;3.15;1.92;;;2.10;99.90;;;;;;5048483;28;20229;-81
2022/02/08 03:05:12;;;;;;;9.60;1.92;;;2.20;99.90;;;;;;5039426;28;20670;-81
2022/02/08 03:18:39;;;;;;;6.50;1.85;;;2.10;99.90;;;;;;5038359;28;20218;-81
2022/02/08 03:21:10;;;;;;;1.55;1.42;;;2.20;99.90;;;;;;5050544;28;20213;-81
2022/02/08 03:23:37;;;;;;;1.83;1.50;;;2.20;99.90;;;;;;5059143;28;20226;-81
2022/02/08 03:26:04;;;;;;;3.75;2.70;;;2.20;99.90;;;;;;5041553;28;20207;-81
2022/02/08 03:28:31;;;;;;;5.35;1.50;;;2.30;99.90;;;;;;5041253;28;20238;-81
2022/02/08 03:30:59;;;;;;;13.85;2.63;;;2.20;99.90;;;;;;5038747;28;20269;-81
2022/02/08 03:33:26;;;;;;;3.15;1.98;;;2.30;99.90;;;;;;5037626;28;20232;-81
2022/02/08 03:35:55;;;;;;;1.98;1.80;;;2.40;99.90;;;;;;5038558;28;20269;-81
2022/02/08 03:38:28;;;;;;;10.20;2.30;;;2.40;99.90;;;;;;5058010;28;20205;-81
2022/02/08 03:40:55;;;;;;;2.05;1.35;;;2.40;99.90;;;;;;5066943;28;20190;-81
2022/02/08 03:43:31;;;;;;;4.68;1.88;;;2.40;99.90;;;;;;5062923;28;20285;-81
2022/02/08 03:46:03;;;;;;;6.65;1.92;;;2.50;99.90;;;;;;5020884;28;20271;-81
2022/02/08 03:48:32;;;;;;;6.28;2.33;;;2.50;99.90;;;;;;5039053;28;20219;-81
2022/02/08 03:51:08;;;;;;;3.17;1.70;;;2.50;99.90;;;;;;5038691;28;20575;-81
2022/02/08 03:53:35;;;;;;;1.92;1.75;;;2.50;99.90;;;;;;5017787;28;20233;-81
2022/02/08 03:56:03;;;;;;;2.95;1.65;;;2.50;99.90;;;;;;5020551;28;20215;-81
2022/02/08 03:58:30;;;;;;;8.95;2.72;;;2.50;99.90;;;;;;5041206;28;20207;-81
2022/02/08 04:01:20;;;;;;;2.17;2.00;;;2.50;99.90;;;;;;5053898;28;20194;-81
2022/02/08 04:04:05;;;;;;;2.75;1.88;;;2.50;99.90;;;;;;5045312;28;20229;-81
2022/02/08 04:06:32;;;;;;;4.50;1.15;;;2.60;99.90;;;;;;5039842;28;20291;-81
2022/02/08 04:09:00;;;;;;;3.95;1.65;;;2.70;99.90;;;;;;5058222;28;20206;-81
2022/02/08 04:11:28;;;;;;;4.35;1.88;;;2.60;99.90;;;;;;5045456;28;20224;-81
2022/02/08 04:14:00;;;;;;;5.38;2.05;;;2.60;99.90;;;;;;5045860;28;20254;-81
2022/02/08 04:16:31;;;;;;;4.25;2.08;;;2.60;99.90;;;;;;5058161;28;20202;-81
2022/02/08 04:19:15;;;;;;;2.45;1.55;;;2.70;99.90;;;;;;5043073;28;20239;-81
2022/02/08 04:33:03;;;;;;;4.28;1.77;;;2.60;99.90;;;;;;5022058;28;20356;-81
2022/02/08 04:38:35;;;;;;;4.47;1.73;;;2.60;99.90;;;;;;5034436;28;20216;-81
2022/02/08 04:41:05;;;;;;;4.82;2.75;;;2.60;99.90;;;;;;5037267;28;20194;-81
2022/02/08 04:43:39;;;;;;;3.30;1.90;;;2.70;99.90;;;;;;5044540;28;20214;-81
2022/02/08 04:46:13;;;;;;;8.30;1.73;;;2.80;99.90;;;;;;5049217;28;20590;-81
2022/02/08 04:48:47;;;;;;;3.72;1.85;;;2.60;99.90;;;;;;5039337;28;20208;-81
2022/02/08 04:51:21;;;;;;;4.65;1.40;;;2.60;99.90;;;;;;5038040;28;20637;-81
2022/02/08 04:53:55;;;;;;;1.65;1.55;;;2.50;99.90;;;;;;5038337;28;20223;-81
2022/02/08 04:56:33;;;;;;;4.32;1.38;;;2.60;99.90;;;;;;5047650;28;20213;-81
2022/02/08 04:59:13;;;;;;;1.75;1.65;;;2.60;99.90;;;;;;5046490;28;20228;-81
2022/02/08 05:01:55;;;;;;;4.45;2.15;;;2.60;99.90;;;;;;5040652;28;20284;-81
2022/02/08 05:26:56;;;;;;;2.38;1.73;;;2.80;99.90;;;;;;5063747;28;20213;-80
2022/02/08 05:34:06;;;;;;;1.85;1.73;;;2.90;99.90;;;;;;5080601;28;20267;-81
2022/02/08 05:43:46;;;;;;;3.38;1.63;;;3.10;99.90;;;;;;5068334;28;20230;-81
2022/02/08 05:49:05;;;;;;;2.28;1.42;;;3.10;99.90;;;;;;5059845;28;20291;-81
2022/02/08 05:51:56;;;;;;;1.85;1.60;;;3.10;99.90;;;;;;5054065;28;20644;-82
2022/02/08 05:54:23;;;;;;;3.63;1.35;;;3.10;99.90;;;;;;5062360;28;20704;-82
2022/02/08 05:56:53;;;;;;;2.00;1.40;;;3.10;99.90;;;;;;5060602;28;20204;-82
2022/02/08 05:59:20;;;;;;;2.53;1.60;;;3.00;99.90;;;;;;5048321;28;20213;-81
2022/02/08 06:01:47;;;;;;;9.73;2.78;;;3.00;99.90;;;;;;5041976;28;20202;-81
2022/02/08 06:04:15;;;;;;;2.40;2.00;;;3.20;99.90;;;;;;5060801;28;20205;-82
2022/02/08 06:06:42;;;;;;;2.45;2.00;;;3.20;99.90;;;;;;5060864;28;20555;-82
2022/02/08 06:09:08;;;;;;;3.83;2.58;;;3.20;99.90;;;;;;5058792;28;20198;-81
2022/02/08 06:11:37;;;;;;;5.43;1.40;;;3.20;99.90;;;;;;5046217;28;20255;-81
2022/02/08 06:14:06;;;;;;;2.00;1.67;;;3.20;99.90;;;;;;5059848;28;20296;-81
2022/02/08 06:16:34;;;;;;;3.30;1.70;;;3.30;99.90;;;;;;5055358;28;20204;-81
2022/02/08 06:19:02;;;;;;;4.45;2.10;;;3.20;99.90;;;;;;5054486;28;20209;-81
2022/02/08 06:21:29;;;;;;;3.80;2.15;;;3.20;99.90;;;;;;5058845;28;20201;-81
2022/02/08 06:23:56;;;;;;;8.13;1.80;;;3.20;99.90;;;;;;5097901;22;20223;-83
2022/02/08 06:26:24;;;;;;;2.47;2.28;;;3.10;99.90;;;;;;5072276;28;20215;-84
2022/02/08 06:29:00;;;;;;;3.45;1.80;;;3.00;99.90;;;;;;5077574;28;20201;-82
2022/02/08 06:31:28;;;;;;;2.53;1.58;;;3.10;99.90;;;;;;5061614;28;20208;-81
2022/02/08 06:33:55;;;;;;;2.95;1.70;;;3.10;99.90;;;;;;5058195;28;20232;-82
2022/02/08 06:36:22;;;;;;;2.53;1.65;;;3.20;99.90;;;;;;5057112;28;20201;-83
2022/02/08 06:38:49;;;;;;;2.70;1.98;;;3.10;99.90;;;;;;5057286;28;20243;-82
2022/02/08 06:41:17;;;;;;;2.25;2.00;;;3.10;99.90;;;;;;5057187;28;20208;-82
2022/02/08 06:43:43;;;;;;;6.75;2.30;;;3.10;99.90;;;;;;5057546;28;20227;-81
2022/02/08 06:46:10;;;;;;;5.05;2.38;;;3.10;99.90;;;;;;5057148;28;20203;-81
2022/02/08 06:48:39;;;;;;;2.35;2.17;;;3.10;99.90;;;;;;5056863;28;20213;-81
2022/02/08 06:51:06;;;;;;;4.63;2.05;;;3.10;99.90;;;;;;5056501;28;20247;-82
2022/02/08 06:53:32;;;;;;;3.90;1.40;;;3.20;99.90;;;;;;5056205;28;20223;-81
2022/02/08 06:56:02;;;;;;;2.42;1.52;;;3.10;99.90;;;;;;5056413;28;20202;-80
2022/02/08 06:58:35;;;;;;;2.30;1.67;;;3.10;99.90;;;;;;5056135;28;20197;-82
2022/02/08 07:01:04;;;;;;;4.90;1.45;;;3.20;99.90;;;;;;5056193;28;20284;-82
2022/02/08 07:03:31;;;;;;;2.10;1.05;;;3.20;99.90;;;;;;5056010;28;20232;-79
2022/02/08 07:05:59;;;;;;;7.05;1.45;;;3.10;99.90;;;;;;5055588;28;20234;-82
2022/02/08 07:08:26;;;;;;;5.32;2.40;;;3.20;99.90;;;;;;5055574;28;20208;-82
2022/02/08 07:10:53;;;;;;;3.63;1.50;;;3.20;99.90;;;;;;5055521;28;20576;-81
2022/02/08 07:13:20;;;;;;;4.75;1.90;;;3.40;99.90;;;;;;5055747;28;20580;-80
2022/02/08 07:15:46;;;;;;;3.58;2.00;;;3.30;99.90;;;;;;5055247;28;20208;-81
2022/02/08 07:18:13;;;;;;;4.47;1.77;;;3.40;99.90;;;;;;5056121;28;20209;-81
2022/02/08 07:20:40;;;;;;;5.32;3.03;;;3.40;99.90;;;;;;5055999;28;20225;-80
2022/02/08 07:23:08;;;;;;;2.97;1.63;;;3.50;99.90;;;;;;5055015;28;20275;-79
2022/02/08 07:25:35;;;;;;;2.78;2.25;;;3.60;99.90;;;;;;5055281;28;20227;-79
2022/02/08 07:28:02;;;;;;;8.52;2.33;;;3.70;99.90;;;;;;5055287;28;20619;-81
2022/02/08 07:30:32;;;;;;;12.68;2.65;;;3.70;99.90;;;;;;5055143;28;20577;-81
2022/02/08 07:32:58;;;;;;;2.47;1.52;;;3.70;99.90;;;;;;5055222;28;20232;-81
2022/02/08 07:35:31;;;;;;;5.72;1.70;;;3.70;99.90;;;;;;5056027;28;20209;-80
2022/02/08 07:38:04;;;;;;;2.25;1.73;;;3.80;99.90;;;;;;5055645;28;20590;-80
2022/02/08 07:43:26;;;;;;;2.15;1.67;;;3.80;99.90;;;;;;5036491;28;20268;-80
2022/02/08 07:45:52;;;;;;;3.58;2.45;;;3.80;99.90;;;;;;5049968;28;20821;-79
2022/02/08 07:48:19;;;;;;;3.10;1.88;;;3.80;99.90;;;;;;5058309;28;20200;-80
2022/02/08 07:50:50;;;;;;;3.58;1.75;;;3.90;99.90;;;;;;5065508;28;20208;-80
2022/02/08 07:53:16;;;;;;;2.78;1.65;;;4.00;99.90;;;;;;5055874;28;20257;-79
2022/02/08 07:55:45;;;;;;;5.57;1.73;;;4.00;99.90;;;;;;5068334;28;20201;-80
2022/02/08 07:58:12;;;;;;;6.53;1.65;;;4.00;99.90;;;;;;5070272;28;20574;-80
2022/02/08 08:00:39;;;;;;;4.38;2.20;;;4.00;99.90;;;;;;5054656;28;20224;-80
2022/02/08 08:03:06;;;;;;;4.03;1.58;;;4.10;99.90;;;;;;5062422;28;20293;-78
2022/02/08 08:05:33;;;;;;;1.70;1.50;;;4.00;99.90;;;;;;5056691;28;20691;-80
2022/02/08 08:08:01;;;;;;;2.22;1.45;;;4.10;99.90;;;;;;5062494;28;20203;-80
2022/02/08 08:10:31;;;;;;;8.35;2.35;;;4.00;99.90;;;;;;5069433;28;20220;-81
2022/02/08 08:13:01;;;;;;;1.92;1.50;;;4.10;99.90;;;;;;5076402;28;20650;-78
2022/02/08 08:15:37;;;;;;;5.00;1.83;;;4.10;99.90;;;;;;5047691;28;20201;-78
2022/02/08 08:18:18;;;;;;;8.50;1.95;;;4.10;99.90;;;;;;5056167;28;20303;-78
2022/02/08 08:20:45;;;;;;;1.55;1.45;;;4.20;99.90;;;;;;5055988;28;20201;-78
2022/02/08 08:23:12;;;;;;;4.20;1.55;;;4.30;99.90;;;;;;5057518;28;20702;-78
2022/02/08 08:25:39;;;;;;;4.95;1.50;;;4.30;99.90;;;;;;5057886;28;20201;-78
2022/02/08 08:28:09;;;;;;;3.25;1.70;;;4.30;99.90;;;;;;5060487;28;20213;-79
2022/02/08 08:30:36;;;;;;;2.83;1.80;;;4.50;99.90;;;;;;5061443;28;20796;-78
2022/02/08 08:33:03;;;;;;;1.10;1.00;;;4.50;99.90;;;;;;5061117;28;20228;-79
2022/02/08 08:35:30;;;;;;;5.60;2.33;;;4.60;99.90;;;;;;5060921;28;20201;-80
2022/02/08 08:38:03;;;;;;;6.28;2.15;;;4.60;99.90;;;;;;5060312;28;20277;-79
2022/02/08 08:40:43;;;;;;;1.77;1.65;;;4.80;99.90;;;;;;5059347;28;20198;-80
2022/02/08 08:43:36;;;;;;;5.15;2.42;;;4.80;99.90;;;;;;5056771;28;20222;-78
2022/02/08 08:49:05;;;;;;;3.35;1.45;;;5.00;99.90;;;;;;5059366;28;20263;-79
2022/02/08 08:51:39;;;;;;;8.63;2.80;;;5.00;99.90;;;;;;5060280;28;20224;-80
2022/02/08 08:54:07;;;;;;;2.92;1.48;;;5.10;99.90;;;;;;5060499;28;20226;-80
2022/02/08 08:56:35;;;;;;;2.55;1.70;;;5.10;99.90;;;;;;5060115;28;20256;-79
2022/02/08 08:59:03;;;;;;;2.67;1.60;;;5.00;99.90;;;;;;5060782;28;20204;-79
2022/02/08 09:01:30;;;;;;;1.30;1.20;;;4.80;99.90;;;;;;5059829;28;20742;-79
2022/02/08 09:03:57;;;;;;;2.55;1.73;;;4.80;99.90;;;;;;5060839;28;20248;-79
2022/02/08 09:06:24;;;;;;;2.58;1.90;;;4.70;99.90;;;;;;5060676;28;20209;-79
2022/02/08 09:08:51;;;;;;;4.47;1.83;;;4.70;99.90;;;;;;5060591;28;20227;-79
2022/02/08 09:11:32;;;;;;;2.60;1.77;;;4.80;99.90;;;;;;5060636;28;20687;-78
2022/02/08 09:14:06;;;;;;;4.30;2.05;;;4.80;99.90;;;;;;5065979;28;20229;-77
2022/02/08 09:16:39;;;;;;;7.93;3.00;;;4.90;99.90;;;;;;5064458;28;20631;-79
2022/02/08 09:22:17;;;;;;;6.32;2.25;;;5.10;99.90;;;;;;5053069;28;20741;-80
2022/02/08 09:24:59;;;;;;;2.55;1.90;;;5.10;99.90;;;;;;5060623;28;20206;-78
2022/02/08 09:27:50;;;;;;;1.08;1.08;;;5.10;99.90;;;;;;5058418;28;20209;-79
2022/02/08 09:30:19;;;;;;;5.03;1.92;;;5.20;99.90;;;;;;5059407;28;20217;-79
2022/02/08 09:32:51;;;;;;;1.08;1.02;;;5.20;99.90;;;;;;5058611;28;20232;-78
2022/02/08 09:35:19;;;;;;;4.70;2.20;;;5.30;99.90;;;;;;5060482;28;20216;-78
2022/02/08 09:37:46;;;;;;;2.85;1.77;;;5.50;99.90;;;;;;5059963;28;20255;-77
2022/02/08 09:40:15;;;;;;;2.15;1.40;;;5.60;99.90;;;;;;5058026;28;20202;-80
2022/02/08 09:42:42;;;;;;;1.75;1.30;;;5.70;99.90;;;;;;5061361;28;20221;-77
2022/02/08 09:45:15;;;;;;;3.20;1.35;;;5.80;99.90;;;;;;5062643;28;20205;-79
2022/02/08 09:47:51;;;;;;;3.00;1.50;;;5.80;99.90;;;;;;5058454;28;20199;-79
2022/02/08 09:50:22;;;;;;;4.10;1.65;;;5.90;99.90;;;;;;5058107;28;20235;-78
2022/02/08 09:52:51;;;;;;;1.88;1.30;;;6.00;99.90;;;;;;5072702;28;20264;-82
2022/02/08 09:55:19;;;;;;;2.80;1.08;;;6.10;99.90;;;;;;5072156;28;20201;-83
2022/02/08 09:57:47;;;;;;;2.20;1.42;;;6.20;99.90;;;;;;5074510;28;20232;-84
2022/02/08 10:00:18;;;;;;;1.02;0.93;;;6.30;99.90;;;;;;5071714;28;20342;-84
2022/02/08 10:02:44;;;;;;;1.50;1.40;;;6.30;99.90;;;;;;5077371;28;20260;-85
2022/02/08 10:05:14;;;;;;;3.53;2.35;;;6.40;99.90;;;;;;5075076;28;20212;-84
2022/02/08 10:07:42;;;;;;;1.45;1.05;;;6.50;99.90;;;;;;5076867;28;20216;-84
2022/02/08 10:10:11;;;;;;;3.40;1.80;;;6.50;99.90;;;;;;5088669;22;20310;-83
2022/02/08 10:23:58;;;;;;;2.58;1.48;;;6.70;99.90;;;;;;5079488;28;20236;-83
2022/02/08 10:26:33;;;;;;;1.55;1.38;;;6.60;99.90;;;;;;5235133;22;20220;-84
2022/02/08 10:29:10;;;;;;;3.55;1.88;;;6.80;99.90;;;;;;5074586;28;20207;-83
2022/02/08 10:40:06;;;;;;;0.98;0.98;;;7.30;99.90;;;;;;5043719;28;20194;-83
2022/02/08 10:42:34;;;;;;;2.55;1.58;;;7.40;99.90;;;;;;5042858;28;20229;-83
2022/02/08 10:45:02;;;;;;;3.35;1.63;;;7.50;99.90;;;;;;5040684;28;20217;-82
2022/02/08 10:47:37;;;;;;;3.40;2.08;;;7.70;99.70;;;;;;5042546;28;20221;-83
2022/02/08 10:50:06;;;;;;;5.25;1.92;;;7.70;99.50;;;;;;5042306;28;20252;-83
2022/02/08 10:52:36;;;;;;;4.15;1.95;;;7.70;99.30;;;;;;5047019;28;20234;-83
2022/02/08 10:55:12;;;;;;;1.95;0.93;;;7.60;99.50;;;;;;5057993;28;20579;-81
2022/02/08 10:57:50;;;;;;;2.58;1.40;;;7.70;99.20;;;;;;5057876;28;20205;-81
2022/02/08 11:00:22;;;;;;;1.52;1.40;;;7.80;99.30;;;;;;5056956;28;20197;-81
2022/02/08 11:02:52;;;;;;;3.05;1.50;;;7.90;99.30;;;;;;5056561;28;20222;-81
2022/02/08 11:05:25;;;;;;;3.70;1.45;;;8.10;98.90;;;;;;5057478;28;20244;-82
2022/02/08 11:08:10;;;;;;;3.08;1.30;;;8.40;98.60;;;;;;5057754;28;20285;-83
2022/02/08 11:11:02;;;;;;;2.40;1.50;;;8.90;98.50;;;;;;5057173;28;20217;-83
2022/02/08 11:13:57;;;;;;;5.88;2.05;;;9.10;97.60;;;;;;5057203;28;20241;-81
2022/02/08 11:16:29;;;;;;;2.13;1.40;;;9.60;97.40;;;;;;5058179;28;20208;-81
2022/02/08 11:19:09;;;;;;;4.50;2.17;;;10.20;96.00;;;;;;5057106;28;20564;-81
2022/02/08 11:21:55;;;;;;;3.58;1.70;;;10.50;95.70;;;;;;5056476;28;20302;-81
2022/02/08 11:24:28;;;;;;;2.03;1.60;;;10.40;95.00;;;;;;5057099;28;20577;-81
2022/02/08 11:27:06;;;;;;;5.47;2.17;;;10.80;94.90;;;;;;5058082;28;20460;-81
2022/02/08 11:29:38;;;;;;;1.80;1.23;;;11.40;94.30;;;;;;5059017;28;20232;-83
2022/02/08 11:32:13;;;;;;;1.67;0.93;;;12.00;93.60;;;;;;5059458;28;20470;-82
2022/02/08 11:46:16;;;;;;;3.57;1.40;;;12.10;92.50;;;;;;5041023;28;20450;-82
2022/02/08 11:49:04;;;;;;;2.60;1.03;;;11.70;93.00;;;;;;5057689;28;20447;-81
2022/02/08 11:54:45;;;;;;;1.70;1.20;;;11.00;94.50;;;;;;5056858;28;20490;-82
2022/02/08 12:00:20;;;;;;;1.40;0.90;;;10.50;95.90;;;;;;5005708;28;20448;-79
2022/02/08 12:02:57;;;;;;;2.97;1.42;;;10.20;96.90;;;;;;5004225;28;20467;-79
2022/02/08 12:05:35;;;;;;;1.95;1.15;;;10.20;96.90;;;;;;5038359;28;20282;-80
2022/02/08 12:08:04;;;;;;;1.15;0.82;;;9.90;98.00;;;;;;5067360;28;20210;-82
2022/02/08 12:10:38;;;;;;;2.37;1.27;;;9.70;99.10;;;;;;5065027;28;20203;-81
2022/02/08 12:13:30;;;;;;;2.80;1.10;;;9.90;99.20;;;;;;5066378;28;20902;-81
2022/02/08 12:33:08;;;;;;;1.13;0.88;;;10.50;98.50;;;;;;4969890;28;20561;-79
2022/02/08 12:35:57;;;;;;;9.30;1.33;;;10.70;99.30;;;;;;5002119;28;20215;-78
2022/02/08 13:01:25;;;;;;;2.87;1.70;;;12.70;97.70;;;;;;5031652;28;20462;-78
2022/02/08 13:04:11;;;;;;;1.10;1.00;;;12.90;96.50;;;;;;5031385;28;20483;-78
2022/02/08 14:02:37;;;;;;;1.73;1.10;;;9.00;99.90;;;;;;5013749;28;20246;-77
2022/02/08 14:05:40;;;;;;;3.40;1.13;;;9.10;99.90;;;;;;5018412;28;20647;-77
2022/02/08 14:08:13;;;;;;;2.07;1.80;;;9.20;99.90;;;;;;5036559;28;20214;-78
2022/02/08 14:11:03;;;;;;;4.15;1.30;;;9.40;99.90;;;;;;5034826;28;20442;-77
2022/02/08 14:13:53;;;;;;;3.72;1.35;;;9.60;99.90;;;;;;5034818;28;20230;-77
2022/02/08 14:16:35;;;;;;;1.58;1.20;;;9.50;99.90;;;;;;5034388;28;20199;-77
2022/02/08 14:19:23;;;;;;;4.18;2.05;;;9.60;99.90;;;;;;5034627;28;20574;-77
2022/02/08 14:21:57;;;;;;;5.63;1.80;;;9.40;99.90;;;;;;5033032;28;20589;-77
2022/02/08 14:24:35;;;;;;;5.40;1.30;;;9.30;99.90;;;;;;5034220;28;20686;-77
2022/02/08 14:29:51;;;;;;;1.77;0.85;;;9.20;99.90;;;;;;5014838;28;20210;-79
2022/02/08 14:32:27;;;;;;;2.58;1.20;;;9.00;99.90;;;;;;5036830;28;20628;-79
2022/02/08 14:35:25;;;;;;;2.60;1.25;;;8.90;99.90;;;;;;5039048;28;20208;-79
2022/02/08 14:49:10;;;;;;;2.15;0.88;;;9.40;99.90;;;;;;5038180;28;20584;-80
2022/02/08 15:08:24;;;;;;;3.15;1.00;;;9.10;99.90;;;;;;5035803;28;20348;-78
2022/02/08 15:10:53;;;;;;;2.55;1.00;;;9.20;99.90;;;;;;5038203;28;20207;-79
2022/02/08 15:13:21;;;;;;;1.42;1.08;;;9.30;99.90;;;;;;5038707;28;20247;-79
2022/02/08 15:16:06;;;;;;;1.30;1.05;;;9.00;99.90;;;;;;5037721;28;20214;-79
2022/02/08 15:18:34;;;;;;;2.13;1.00;;;9.10;99.90;;;;;;5038812;28;20206;-81
2022/02/08 15:21:01;;;;;;;1.77;0.60;;;9.00;99.90;;;;;;5038749;28;20234;-80
2022/02/08 15:23:28;;;;;;;1.00;0.55;;;8.80;99.90;;;;;;5036482;28;20257;-80
2022/02/08 15:25:57;;;;;;;1.00;0.75;;;8.70;99.90;;;;;;5038380;28;20206;-79
2022/02/08 15:28:26;;;;;;;1.15;0.80;;;8.60;99.90;;;;;;5038441;28;20207;-79
2022/02/08 15:30:55;;;;;;;1.50;1.40;;;8.60;99.90;;;;;;5038983;28;20611;-79
2022/02/08 15:33:23;;;;;;;1.50;1.10;;;8.60;99.90;;;;;;5044587;28;20223;-79
2022/02/08 15:35:50;;;;;;;1.20;1.08;;;8.50;99.90;;;;;;5040037;28;20294;-79
2022/02/08 15:38:17;;;;;;;2.10;0.90;;;8.50;99.90;;;;;;5035819;28;20214;-78
2022/02/08 15:40:45;;;;;;;2.05;1.05;;;8.50;99.90;;;;;;5031061;28;20569;-78
2022/02/08 15:43:13;;;;;;;2.80;1.70;;;8.50;99.90;;;;;;5035267;28;20487;-79
2022/02/08 15:45:46;;;;;;;4.63;1.60;;;8.60;99.90;;;;;;5036586;28;20203;-79
2022/02/08 15:48:20;;;;;;;2.03;1.80;;;8.70;99.90;;;;;;5032108;28;20207;-78
2022/02/08 15:50:54;;;;;;;2.42;1.45;;;8.60;99.90;;;;;;5032465;28;20207;-78
2022/02/08 15:53:50;;;;;;;1.40;1.30;;;8.60;99.90;;;;;;5033793;28;20236;-77
2022/02/08 16:07:27;;;;;;;3.28;1.33;;;8.40;99.90;;;;;;5035241;28;20748;-78
2022/02/08 16:10:01;;;;;;;1.40;0.77;;;8.30;99.90;;;;;;5035559;28;20559;-78
2022/02/08 16:12:45;;;;;;;2.97;1.58;;;8.20;99.90;;;;;;5032810;28;20671;-78
2022/02/08 16:15:35;;;;;;;4.10;1.70;;;8.20;99.90;;;;;;5035842;28;20240;-78
2022/02/08 16:18:18;;;;;;;2.47;1.83;;;8.10;99.90;;;;;;5034755;28;20211;-78
2022/02/08 16:21:05;;;;;;;4.90;0.93;;;8.10;99.90;;;;;;5033971;28;20207;-78
2022/02/08 16:23:59;;;;;;;1.85;1.55;;;8.10;99.90;;;;;;5033291;28;20334;-77
2022/02/08 16:26:38;;;;;;;1.45;1.10;;;8.10;99.90;;;;;;5032598;28;20573;-78
2022/02/08 16:29:18;;;;;;;1.63;1.23;;;8.10;99.90;;;;;;5032964;28;20253;-78
2022/02/08 16:53:38;;;;;;;3.85;2.28;;;8.10;99.90;;;;;;5002932;28;20241;-78
2022/02/08 16:56:15;;;;;;;2.00;1.50;;;8.00;99.90;;;;;;5033833;28;20205;-78
2022/02/08 16:58:48;;;;;;;4.40;3.17;;;8.00;99.90;;;;;;5035461;28;20216;-81
2022/02/08 17:01:18;;;;;;;2.20;2.00;;;8.00;99.90;;;;;;5041402;28;20233;-82
2022/02/08 17:03:48;;;;;;;2.25;1.63;;;8.00;99.90;;;;;;5043820;28;20313;-80
2022/02/08 17:06:17;;;;;;;2.95;2.75;;;8.00;99.90;;;;;;5044340;28;20212;-82
2022/02/08 17:08:46;;;;;;;4.95;1.48;;;8.00;99.90;;;;;;5044598;28;20303;-82
2022/02/08 17:11:20;;;;;;;4.28;2.05;;;8.00;99.90;;;;;;5044269;28;20206;-82
2022/02/08 17:14:12;;;;;;;1.83;1.73;;;8.10;99.90;;;;;;5044094;28;20230;-81
2022/02/08 17:16:47;;;;;;;1.88;1.60;;;8.20;99.90;;;;;;5033657;28;20289;-79
2022/02/08 17:19:45;;;;;;;1.85;1.75;;;8.10;99.90;;;;;;5032108;28;20640;-79
2022/02/08 17:47:20;;;;;;;2.35;2.03;;;8.30;99.90;;;;;;5034327;28;20201;-80
2022/02/08 17:49:47;;;;;;;4.18;2.03;;;8.40;99.90;;;;;;5035818;28;20190;-81
2022/02/08 17:52:14;;;;;;;5.85;3.35;;;8.30;99.90;;;;;;5038557;28;20252;-79
2022/02/08 17:54:41;;;;;;;12.02;2.33;;;8.20;99.90;;;;;;5024319;28;20227;-81
2022/02/08 17:57:09;;;;;;;2.25;1.58;;;8.30;99.90;;;;;;5024364;28;20214;-80
2022/02/08 17:59:36;;;;;;;4.40;2.95;;;8.30;99.90;;;;;;5021578;28;20203;-80
2022/02/08 18:02:04;;;;;;;3.72;1.80;;;8.30;99.90;;;;;;5023863;28;20622;-81
2022/02/08 18:04:31;;;;;;;4.97;1.73;;;8.30;99.90;;;;;;5024685;28;20292;-80
2022/02/08 18:06:59;;;;;;;4.30;2.08;;;8.30;99.90;;;;;;5032413;28;20218;-80
2022/02/08 18:09:27;;;;;;;5.43;2.33;;;8.30;99.90;;;;;;5029578;28;20199;-81
2022/02/08 18:11:56;;;;;;;3.00;2.70;;;8.30;99.90;;;;;;5027873;28;20222;-80